sensor_id;sensor_type;location;lat;lon;timestamp;P1;durP1;ratioP1;P2;durP2;ratioP2
74799;SDS011;63326;45.088;7.658;2023-07-02T00:01:59;5.22;;;2.55;;
74799;SDS011;63326;45.088;7.658;2023-07-02T00:04:26;7.43;;;3.10;;
74799;SDS011;63326;45.088;7.658;2023-07-02T00:06:52;5.78;;;3.00;;
74799;SDS011;63326;45.088;7.658;2023-07-02T00:09:19;5.60;;;2.25;;
74799;SDS011;63326;45.088;7.658;2023-07-02T00:11:46;5.30;;;2.58;;
74799;SDS011;63326;45.088;7.658;2023-07-02T00:14:13;6.55;;;3.08;;
74799;SDS011;63326;45.088;7.658;2023-07-02T00:16:44;4.25;;;2.50;;
74799;SDS011;63326;45.088;7.658;2023-07-02T00:19:14;5.43;;;2.55;;
74799;SDS011;63326;45.088;7.658;2023-07-02T00:21:41;5.63;;;2.50;;
74799;SDS011;63326;45.088;7.658;2023-07-02T00:24:08;5.13;;;2.55;;
74799;SDS011;63326;45.088;7.658;2023-07-02T00:26:38;4.43;;;2.85;;
74799;SDS011;63326;45.088;7.658;2023-07-02T00:29:10;7.00;;;3.63;;
74799;SDS011;63326;45.088;7.658;2023-07-02T00:31:37;5.47;;;3.35;;
74799;SDS011;63326;45.088;7.658;2023-07-02T00:34:03;4.72;;;2.67;;
74799;SDS011;63326;45.088;7.658;2023-07-02T00:36:30;5.50;;;2.60;;
74799;SDS011;63326;45.088;7.658;2023-07-02T00:38:58;4.68;;;2.50;;
74799;SDS011;63326;45.088;7.658;2023-07-02T00:41:24;5.60;;;2.70;;
74799;SDS011;63326;45.088;7.658;2023-07-02T00:43:52;7.40;;;3.53;;
74799;SDS011;63326;45.088;7.658;2023-07-02T00:46:22;5.03;;;2.70;;
74799;SDS011;63326;45.088;7.658;2023-07-02T00:48:52;5.93;;;2.70;;
74799;SDS011;63326;45.088;7.658;2023-07-02T00:51:20;4.90;;;2.65;;
74799;SDS011;63326;45.088;7.658;2023-07-02T00:53:47;5.88;;;3.35;;
74799;SDS011;63326;45.088;7.658;2023-07-02T00:56:15;5.22;;;2.97;;
74799;SDS011;63326;45.088;7.658;2023-07-02T00:58:42;5.63;;;2.33;;
74799;SDS011;63326;45.088;7.658;2023-07-02T01:01:17;4.55;;;2.90;;
74799;SDS011;63326;45.088;7.658;2023-07-02T01:03:57;5.03;;;2.90;;
74799;SDS011;63326;45.088;7.658;2023-07-02T01:06:29;6.65;;;2.53;;
74799;SDS011;63326;45.088;7.658;2023-07-02T01:09:00;5.43;;;2.53;;
74799;SDS011;63326;45.088;7.658;2023-07-02T01:11:34;5.68;;;2.30;;
74799;SDS011;63326;45.088;7.658;2023-07-02T01:14:02;4.45;;;2.30;;
74799;SDS011;63326;45.088;7.658;2023-07-02T01:16:30;5.35;;;2.80;;
74799;SDS011;63326;45.088;7.658;2023-07-02T01:19:00;5.80;;;2.95;;
74799;SDS011;63326;45.088;7.658;2023-07-02T01:21:31;5.05;;;2.33;;
74799;SDS011;63326;45.088;7.658;2023-07-02T01:24:01;5.55;;;2.35;;
74799;SDS011;63326;45.088;7.658;2023-07-02T01:26:29;5.28;;;2.53;;
74799;SDS011;63326;45.088;7.658;2023-07-02T01:28:56;6.32;;;2.83;;
74799;SDS011;63326;45.088;7.658;2023-07-02T01:31:23;5.60;;;2.67;;
74799;SDS011;63326;45.088;7.658;2023-07-02T01:33:51;5.40;;;2.65;;
74799;SDS011;63326;45.088;7.658;2023-07-02T01:36:19;5.75;;;2.50;;
74799;SDS011;63326;45.088;7.658;2023-07-02T01:38:45;5.88;;;2.60;;
74799;SDS011;63326;45.088;7.658;2023-07-02T01:41:12;3.50;;;1.95;;
74799;SDS011;63326;45.088;7.658;2023-07-02T01:43:38;4.95;;;2.85;;
74799;SDS011;63326;45.088;7.658;2023-07-02T01:46:05;5.90;;;2.28;;
74799;SDS011;63326;45.088;7.658;2023-07-02T01:48:31;5.60;;;2.58;;
74799;SDS011;63326;45.088;7.658;2023-07-02T01:50:58;4.82;;;2.10;;
74799;SDS011;63326;45.088;7.658;2023-07-02T01:53:25;5.93;;;2.53;;
74799;SDS011;63326;45.088;7.658;2023-07-02T01:55:51;6.20;;;3.10;;
74799;SDS011;63326;45.088;7.658;2023-07-02T01:58:18;5.30;;;2.60;;
74799;SDS011;63326;45.088;7.658;2023-07-02T02:00:45;5.15;;;2.35;;
74799;SDS011;63326;45.088;7.658;2023-07-02T02:03:12;4.10;;;2.30;;
74799;SDS011;63326;45.088;7.658;2023-07-02T02:05:38;4.88;;;2.28;;
74799;SDS011;63326;45.088;7.658;2023-07-02T02:08:05;6.65;;;2.38;;
74799;SDS011;63326;45.088;7.658;2023-07-02T02:10:31;3.80;;;2.08;;
74799;SDS011;63326;45.088;7.658;2023-07-02T02:12:58;6.30;;;2.30;;
74799;SDS011;63326;45.088;7.658;2023-07-02T02:15:25;4.32;;;2.53;;
74799;SDS011;63326;45.088;7.658;2023-07-02T02:17:51;5.53;;;2.60;;
74799;SDS011;63326;45.088;7.658;2023-07-02T02:20:19;4.60;;;2.38;;
74799;SDS011;63326;45.088;7.658;2023-07-02T02:22:45;4.47;;;2.40;;
74799;SDS011;63326;45.088;7.658;2023-07-02T02:25:12;10.52;;;2.80;;
74799;SDS011;63326;45.088;7.658;2023-07-02T02:27:38;7.10;;;2.58;;
74799;SDS011;63326;45.088;7.658;2023-07-02T02:30:22;8.25;;;2.42;;
74799;SDS011;63326;45.088;7.658;2023-07-02T02:32:50;5.57;;;2.28;;
74799;SDS011;63326;45.088;7.658;2023-07-02T02:35:17;4.40;;;2.17;;
74799;SDS011;63326;45.088;7.658;2023-07-02T02:37:44;3.70;;;2.00;;
74799;SDS011;63326;45.088;7.658;2023-07-02T02:40:11;3.72;;;1.83;;
74799;SDS011;63326;45.088;7.658;2023-07-02T02:42:39;6.95;;;2.30;;
74799;SDS011;63326;45.088;7.658;2023-07-02T02:45:06;8.27;;;3.05;;
74799;SDS011;63326;45.088;7.658;2023-07-02T02:47:33;8.98;;;3.40;;
74799;SDS011;63326;45.088;7.658;2023-07-02T02:50:00;8.20;;;2.83;;
74799;SDS011;63326;45.088;7.658;2023-07-02T02:52:27;6.97;;;3.45;;
74799;SDS011;63326;45.088;7.658;2023-07-02T02:54:53;5.57;;;2.63;;
74799;SDS011;63326;45.088;7.658;2023-07-02T02:57:20;5.00;;;2.30;;
74799;SDS011;63326;45.088;7.658;2023-07-02T02:59:47;6.07;;;2.63;;
74799;SDS011;63326;45.088;7.658;2023-07-02T03:02:13;4.22;;;2.60;;
74799;SDS011;63326;45.088;7.658;2023-07-02T03:04:40;5.82;;;2.65;;
74799;SDS011;63326;45.088;7.658;2023-07-02T03:09:34;4.03;;;2.22;;
74799;SDS011;63326;45.088;7.658;2023-07-02T03:12:00;3.30;;;1.90;;
74799;SDS011;63326;45.088;7.658;2023-07-02T03:14:27;4.72;;;2.22;;
74799;SDS011;63326;45.088;7.658;2023-07-02T03:16:54;6.10;;;2.08;;
74799;SDS011;63326;45.088;7.658;2023-07-02T03:19:21;4.57;;;1.95;;
74799;SDS011;63326;45.088;7.658;2023-07-02T03:21:48;5.38;;;2.33;;
74799;SDS011;63326;45.088;7.658;2023-07-02T03:24:14;6.72;;;2.53;;
74799;SDS011;63326;45.088;7.658;2023-07-02T03:26:42;5.72;;;2.90;;
74799;SDS011;63326;45.088;7.658;2023-07-02T03:29:09;6.22;;;2.47;;
74799;SDS011;63326;45.088;7.658;2023-07-02T03:31:36;5.63;;;2.67;;
74799;SDS011;63326;45.088;7.658;2023-07-02T03:34:03;6.13;;;2.97;;
74799;SDS011;63326;45.088;7.658;2023-07-02T03:36:31;4.68;;;2.25;;
74799;SDS011;63326;45.088;7.658;2023-07-02T03:38:57;4.03;;;2.28;;
74799;SDS011;63326;45.088;7.658;2023-07-02T03:41:24;4.47;;;2.33;;
74799;SDS011;63326;45.088;7.658;2023-07-02T03:43:51;5.47;;;2.75;;
74799;SDS011;63326;45.088;7.658;2023-07-02T03:46:17;5.15;;;2.85;;
74799;SDS011;63326;45.088;7.658;2023-07-02T03:48:44;4.05;;;2.17;;
74799;SDS011;63326;45.088;7.658;2023-07-02T03:51:11;5.85;;;2.78;;
74799;SDS011;63326;45.088;7.658;2023-07-02T03:53:41;3.88;;;2.25;;
74799;SDS011;63326;45.088;7.658;2023-07-02T03:56:08;5.72;;;3.13;;
74799;SDS011;63326;45.088;7.658;2023-07-02T03:58:34;7.57;;;3.25;;
74799;SDS011;63326;45.088;7.658;2023-07-02T04:01:01;4.65;;;2.65;;
74799;SDS011;63326;45.088;7.658;2023-07-02T04:03:28;3.90;;;1.85;;
74799;SDS011;63326;45.088;7.658;2023-07-02T04:05:54;6.18;;;2.40;;
74799;SDS011;63326;45.088;7.658;2023-07-02T04:08:21;5.22;;;2.42;;
74799;SDS011;63326;45.088;7.658;2023-07-02T04:10:48;4.68;;;2.28;;
74799;SDS011;63326;45.088;7.658;2023-07-02T04:13:15;5.55;;;2.35;;
74799;SDS011;63326;45.088;7.658;2023-07-02T04:15:42;3.85;;;1.80;;
74799;SDS011;63326;45.088;7.658;2023-07-02T04:18:09;5.53;;;2.03;;
74799;SDS011;63326;45.088;7.658;2023-07-02T04:20:35;3.67;;;1.90;;
74799;SDS011;63326;45.088;7.658;2023-07-02T04:23:08;4.43;;;2.10;;
74799;SDS011;63326;45.088;7.658;2023-07-02T04:25:34;3.28;;;1.42;;
74799;SDS011;63326;45.088;7.658;2023-07-02T04:28:21;3.65;;;2.08;;
74799;SDS011;63326;45.088;7.658;2023-07-02T04:30:47;5.15;;;2.30;;
74799;SDS011;63326;45.088;7.658;2023-07-02T04:33:16;5.40;;;2.70;;
74799;SDS011;63326;45.088;7.658;2023-07-02T04:35:43;4.28;;;1.77;;
74799;SDS011;63326;45.088;7.658;2023-07-02T04:38:10;4.72;;;2.28;;
74799;SDS011;63326;45.088;7.658;2023-07-02T04:40:38;4.45;;;2.17;;
74799;SDS011;63326;45.088;7.658;2023-07-02T04:43:05;5.55;;;2.17;;
74799;SDS011;63326;45.088;7.658;2023-07-02T04:45:32;4.85;;;2.40;;
74799;SDS011;63326;45.088;7.658;2023-07-02T04:48:05;5.13;;;2.67;;
74799;SDS011;63326;45.088;7.658;2023-07-02T04:50:32;4.68;;;2.20;;
74799;SDS011;63326;45.088;7.658;2023-07-02T04:52:58;7.25;;;2.75;;
74799;SDS011;63326;45.088;7.658;2023-07-02T04:55:25;4.85;;;2.22;;
74799;SDS011;63326;45.088;7.658;2023-07-02T04:57:51;4.47;;;2.05;;
74799;SDS011;63326;45.088;7.658;2023-07-02T05:00:18;5.72;;;2.25;;
74799;SDS011;63326;45.088;7.658;2023-07-02T05:02:45;5.32;;;2.35;;
74799;SDS011;63326;45.088;7.658;2023-07-02T05:05:11;5.18;;;2.35;;
74799;SDS011;63326;45.088;7.658;2023-07-02T05:07:40;5.70;;;2.20;;
74799;SDS011;63326;45.088;7.658;2023-07-02T05:10:06;3.90;;;2.22;;
74799;SDS011;63326;45.088;7.658;2023-07-02T05:12:33;4.32;;;2.33;;
74799;SDS011;63326;45.088;7.658;2023-07-02T05:15:00;6.82;;;2.72;;
74799;SDS011;63326;45.088;7.658;2023-07-02T05:17:26;3.60;;;2.03;;
74799;SDS011;63326;45.088;7.658;2023-07-02T05:19:53;3.53;;;1.90;;
74799;SDS011;63326;45.088;7.658;2023-07-02T05:22:20;4.30;;;1.98;;
74799;SDS011;63326;45.088;7.658;2023-07-02T05:24:47;3.78;;;1.75;;
74799;SDS011;63326;45.088;7.658;2023-07-02T05:27:13;4.93;;;2.45;;
74799;SDS011;63326;45.088;7.658;2023-07-02T05:29:40;3.45;;;1.77;;
74799;SDS011;63326;45.088;7.658;2023-07-02T05:32:06;4.88;;;2.53;;
74799;SDS011;63326;45.088;7.658;2023-07-02T05:34:33;4.72;;;2.40;;
74799;SDS011;63326;45.088;7.658;2023-07-02T05:37:00;5.88;;;3.08;;
74799;SDS011;63326;45.088;7.658;2023-07-02T05:39:26;5.97;;;3.03;;
74799;SDS011;63326;45.088;7.658;2023-07-02T05:41:53;4.43;;;2.88;;
74799;SDS011;63326;45.088;7.658;2023-07-02T05:44:20;4.18;;;2.35;;
74799;SDS011;63326;45.088;7.658;2023-07-02T05:46:47;4.68;;;2.83;;
74799;SDS011;63326;45.088;7.658;2023-07-02T05:51:40;4.47;;;2.10;;
74799;SDS011;63326;45.088;7.658;2023-07-02T05:54:07;5.53;;;2.78;;
74799;SDS011;63326;45.088;7.658;2023-07-02T05:56:33;5.72;;;3.13;;
74799;SDS011;63326;45.088;7.658;2023-07-02T05:59:00;5.18;;;2.60;;
74799;SDS011;63326;45.088;7.658;2023-07-02T06:01:26;5.57;;;2.63;;
74799;SDS011;63326;45.088;7.658;2023-07-02T06:03:53;5.97;;;3.50;;
74799;SDS011;63326;45.088;7.658;2023-07-02T06:06:23;5.90;;;3.10;;
74799;SDS011;63326;45.088;7.658;2023-07-02T06:08:51;5.35;;;3.22;;
74799;SDS011;63326;45.088;7.658;2023-07-02T06:13:44;4.65;;;3.03;;
74799;SDS011;63326;45.088;7.658;2023-07-02T06:16:10;4.45;;;2.85;;
74799;SDS011;63326;45.088;7.658;2023-07-02T06:18:37;7.00;;;4.28;;
74799;SDS011;63326;45.088;7.658;2023-07-02T06:21:04;5.90;;;3.20;;
74799;SDS011;63326;45.088;7.658;2023-07-02T06:23:39;4.88;;;2.55;;
74799;SDS011;63326;45.088;7.658;2023-07-02T06:26:05;4.90;;;2.83;;
74799;SDS011;63326;45.088;7.658;2023-07-02T06:28:32;5.22;;;2.85;;
74799;SDS011;63326;45.088;7.658;2023-07-02T06:30:58;5.35;;;3.33;;
74799;SDS011;63326;45.088;7.658;2023-07-02T06:33:25;5.85;;;3.20;;
74799;SDS011;63326;45.088;7.658;2023-07-02T06:35:52;6.00;;;3.75;;
74799;SDS011;63326;45.088;7.658;2023-07-02T06:38:18;6.68;;;2.88;;
74799;SDS011;63326;45.088;7.658;2023-07-02T06:40:45;5.13;;;3.22;;
74799;SDS011;63326;45.088;7.658;2023-07-02T06:43:12;6.95;;;3.70;;
74799;SDS011;63326;45.088;7.658;2023-07-02T06:45:38;6.45;;;3.33;;
74799;SDS011;63326;45.088;7.658;2023-07-02T06:48:05;4.88;;;3.42;;
74799;SDS011;63326;45.088;7.658;2023-07-02T06:50:32;7.50;;;4.00;;
74799;SDS011;63326;45.088;7.658;2023-07-02T06:52:58;4.78;;;2.95;;
74799;SDS011;63326;45.088;7.658;2023-07-02T06:55:25;5.30;;;3.08;;
74799;SDS011;63326;45.088;7.658;2023-07-02T06:57:51;5.00;;;3.05;;
74799;SDS011;63326;45.088;7.658;2023-07-02T07:00:18;6.82;;;3.75;;
74799;SDS011;63326;45.088;7.658;2023-07-02T07:02:44;6.35;;;4.10;;
74799;SDS011;63326;45.088;7.658;2023-07-02T07:05:11;6.95;;;4.20;;
74799;SDS011;63326;45.088;7.658;2023-07-02T07:10:05;6.35;;;3.45;;
74799;SDS011;63326;45.088;7.658;2023-07-02T07:12:32;6.25;;;2.95;;
74799;SDS011;63326;45.088;7.658;2023-07-02T07:14:58;5.70;;;3.20;;
74799;SDS011;63326;45.088;7.658;2023-07-02T07:17:25;5.30;;;3.03;;
74799;SDS011;63326;45.088;7.658;2023-07-02T07:19:52;6.03;;;3.63;;
74799;SDS011;63326;45.088;7.658;2023-07-02T07:22:18;6.22;;;3.50;;
74799;SDS011;63326;45.088;7.658;2023-07-02T07:24:45;5.00;;;3.13;;
74799;SDS011;63326;45.088;7.658;2023-07-02T07:27:11;8.13;;;4.32;;
74799;SDS011;63326;45.088;7.658;2023-07-02T07:29:38;7.35;;;4.47;;
74799;SDS011;63326;45.088;7.658;2023-07-02T07:32:05;7.40;;;4.85;;
74799;SDS011;63326;45.088;7.658;2023-07-02T07:34:32;6.95;;;4.25;;
74799;SDS011;63326;45.088;7.658;2023-07-02T07:36:58;5.45;;;3.60;;
74799;SDS011;63326;45.088;7.658;2023-07-02T07:39:25;8.10;;;4.65;;
74799;SDS011;63326;45.088;7.658;2023-07-02T07:41:51;6.18;;;3.30;;
74799;SDS011;63326;45.088;7.658;2023-07-02T07:44:18;6.47;;;3.70;;
74799;SDS011;63326;45.088;7.658;2023-07-02T07:46:44;7.28;;;3.85;;
74799;SDS011;63326;45.088;7.658;2023-07-02T07:49:12;6.50;;;3.90;;
74799;SDS011;63326;45.088;7.658;2023-07-02T07:51:39;6.90;;;3.40;;
74799;SDS011;63326;45.088;7.658;2023-07-02T07:54:05;5.68;;;3.28;;
74799;SDS011;63326;45.088;7.658;2023-07-02T07:56:32;5.85;;;4.10;;
74799;SDS011;63326;45.088;7.658;2023-07-02T07:58:58;5.82;;;3.42;;
74799;SDS011;63326;45.088;7.658;2023-07-02T08:01:25;6.15;;;3.15;;
74799;SDS011;63326;45.088;7.658;2023-07-02T08:03:52;5.50;;;3.42;;
74799;SDS011;63326;45.088;7.658;2023-07-02T08:06:19;6.70;;;4.30;;
74799;SDS011;63326;45.088;7.658;2023-07-02T08:08:46;6.43;;;3.80;;
74799;SDS011;63326;45.088;7.658;2023-07-02T08:11:12;5.93;;;3.67;;
74799;SDS011;63326;45.088;7.658;2023-07-02T08:13:39;5.80;;;3.72;;
74799;SDS011;63326;45.088;7.658;2023-07-02T08:16:05;6.25;;;3.80;;
74799;SDS011;63326;45.088;7.658;2023-07-02T08:18:32;5.38;;;3.72;;
74799;SDS011;63326;45.088;7.658;2023-07-02T08:20:59;6.45;;;3.78;;
74799;SDS011;63326;45.088;7.658;2023-07-02T08:23:26;7.90;;;4.15;;
74799;SDS011;63326;45.088;7.658;2023-07-02T08:25:53;6.35;;;3.75;;
74799;SDS011;63326;45.088;7.658;2023-07-02T08:28:20;5.57;;;4.05;;
74799;SDS011;63326;45.088;7.658;2023-07-02T08:30:46;6.03;;;3.75;;
74799;SDS011;63326;45.088;7.658;2023-07-02T08:33:13;6.95;;;4.35;;
74799;SDS011;63326;45.088;7.658;2023-07-02T08:35:40;7.65;;;4.00;;
74799;SDS011;63326;45.088;7.658;2023-07-02T08:38:06;6.60;;;3.85;;
74799;SDS011;63326;45.088;7.658;2023-07-02T08:40:34;5.95;;;3.90;;
74799;SDS011;63326;45.088;7.658;2023-07-02T08:43:01;6.40;;;3.25;;
74799;SDS011;63326;45.088;7.658;2023-07-02T08:45:28;6.35;;;3.65;;
74799;SDS011;63326;45.088;7.658;2023-07-02T08:47:55;5.75;;;3.78;;
74799;SDS011;63326;45.088;7.658;2023-07-02T08:50:23;5.28;;;3.63;;
74799;SDS011;63326;45.088;7.658;2023-07-02T08:52:50;8.82;;;3.70;;
74799;SDS011;63326;45.088;7.658;2023-07-02T08:55:16;6.15;;;4.80;;
74799;SDS011;63326;45.088;7.658;2023-07-02T08:57:47;5.38;;;3.70;;
74799;SDS011;63326;45.088;7.658;2023-07-02T09:00:15;5.93;;;4.35;;
74799;SDS011;63326;45.088;7.658;2023-07-02T09:02:42;6.60;;;4.40;;
74799;SDS011;63326;45.088;7.658;2023-07-02T09:05:09;5.47;;;3.97;;
74799;SDS011;63326;45.088;7.658;2023-07-02T09:07:46;5.82;;;3.35;;
74799;SDS011;63326;45.088;7.658;2023-07-02T09:10:25;3.90;;;2.72;;
74799;SDS011;63326;45.088;7.658;2023-07-02T09:13:02;7.57;;;4.18;;
74799;SDS011;63326;45.088;7.658;2023-07-02T09:15:34;6.20;;;3.65;;
74799;SDS011;63326;45.088;7.658;2023-07-02T09:18:00;5.93;;;3.47;;
74799;SDS011;63326;45.088;7.658;2023-07-02T09:20:33;7.05;;;4.25;;
74799;SDS011;63326;45.088;7.658;2023-07-02T09:25:39;5.65;;;3.65;;
74799;SDS011;63326;45.088;7.658;2023-07-02T09:30:54;5.20;;;3.15;;
74799;SDS011;63326;45.088;7.658;2023-07-02T09:33:23;4.90;;;3.55;;
74799;SDS011;63326;45.088;7.658;2023-07-02T09:35:50;5.35;;;3.53;;
74799;SDS011;63326;45.088;7.658;2023-07-02T09:38:19;6.57;;;3.60;;
74799;SDS011;63326;45.088;7.658;2023-07-02T09:40:46;4.72;;;3.05;;
74799;SDS011;63326;45.088;7.658;2023-07-02T09:43:15;5.90;;;3.33;;
74799;SDS011;63326;45.088;7.658;2023-07-02T09:45:45;5.72;;;3.13;;
74799;SDS011;63326;45.088;7.658;2023-07-02T09:48:15;5.18;;;3.88;;
74799;SDS011;63326;45.088;7.658;2023-07-02T09:50:47;5.35;;;3.45;;
74799;SDS011;63326;45.088;7.658;2023-07-02T09:53:14;5.20;;;3.20;;
74799;SDS011;63326;45.088;7.658;2023-07-02T09:55:44;4.50;;;2.78;;
74799;SDS011;63326;45.088;7.658;2023-07-02T09:58:10;5.45;;;2.95;;
74799;SDS011;63326;45.088;7.658;2023-07-02T10:00:40;5.25;;;3.05;;
74799;SDS011;63326;45.088;7.658;2023-07-02T10:03:07;5.45;;;3.83;;
74799;SDS011;63326;45.088;7.658;2023-07-02T10:05:34;4.70;;;2.80;;
74799;SDS011;63326;45.088;7.658;2023-07-02T10:08:13;5.43;;;3.63;;
74799;SDS011;63326;45.088;7.658;2023-07-02T10:10:40;5.60;;;3.20;;
74799;SDS011;63326;45.088;7.658;2023-07-02T10:13:07;5.80;;;3.50;;
74799;SDS011;63326;45.088;7.658;2023-07-02T10:15:34;5.80;;;3.10;;
74799;SDS011;63326;45.088;7.658;2023-07-02T10:18:05;4.72;;;2.90;;
74799;SDS011;63326;45.088;7.658;2023-07-02T10:23:00;5.90;;;3.47;;
74799;SDS011;63326;45.088;7.658;2023-07-02T10:25:31;4.07;;;2.55;;
74799;SDS011;63326;45.088;7.658;2023-07-02T10:27:58;4.80;;;2.78;;
74799;SDS011;63326;45.088;7.658;2023-07-02T10:30:33;5.53;;;2.90;;
74799;SDS011;63326;45.088;7.658;2023-07-02T10:33:09;4.70;;;2.85;;
74799;SDS011;63326;45.088;7.658;2023-07-02T10:35:36;4.75;;;2.60;;
74799;SDS011;63326;45.088;7.658;2023-07-02T10:38:03;4.95;;;2.38;;
74799;SDS011;63326;45.088;7.658;2023-07-02T10:40:33;4.50;;;2.80;;
74799;SDS011;63326;45.088;7.658;2023-07-02T10:43:00;4.38;;;2.60;;
74799;SDS011;63326;45.088;7.658;2023-07-02T10:45:33;4.88;;;2.92;;
74799;SDS011;63326;45.088;7.658;2023-07-02T10:48:01;4.53;;;2.50;;
74799;SDS011;63326;45.088;7.658;2023-07-02T10:50:28;5.22;;;3.05;;
74799;SDS011;63326;45.088;7.658;2023-07-02T10:52:54;4.32;;;2.92;;
74799;SDS011;63326;45.088;7.658;2023-07-02T10:55:22;4.43;;;2.65;;
74799;SDS011;63326;45.088;7.658;2023-07-02T10:57:49;5.28;;;2.75;;
74799;SDS011;63326;45.088;7.658;2023-07-02T11:00:18;4.43;;;2.88;;
74799;SDS011;63326;45.088;7.658;2023-07-02T11:02:45;5.47;;;2.95;;
74799;SDS011;63326;45.088;7.658;2023-07-02T11:05:12;6.25;;;2.90;;
74799;SDS011;63326;45.088;7.658;2023-07-02T11:07:39;4.53;;;2.95;;
74799;SDS011;63326;45.088;7.658;2023-07-02T11:10:07;5.40;;;2.58;;
74799;SDS011;63326;45.088;7.658;2023-07-02T11:12:34;4.93;;;3.03;;
74799;SDS011;63326;45.088;7.658;2023-07-02T11:15:08;5.18;;;3.28;;
74799;SDS011;63326;45.088;7.658;2023-07-02T11:17:34;4.07;;;2.65;;
74799;SDS011;63326;45.088;7.658;2023-07-02T11:20:01;4.53;;;2.40;;
74799;SDS011;63326;45.088;7.658;2023-07-02T11:22:35;4.55;;;2.95;;
74799;SDS011;63326;45.088;7.658;2023-07-02T11:25:15;4.03;;;2.45;;
74799;SDS011;63326;45.088;7.658;2023-07-02T11:27:42;4.13;;;2.42;;
74799;SDS011;63326;45.088;7.658;2023-07-02T11:30:09;4.32;;;2.78;;
74799;SDS011;63326;45.088;7.658;2023-07-02T11:32:52;5.45;;;2.83;;
74799;SDS011;63326;45.088;7.658;2023-07-02T11:35:19;5.47;;;3.03;;
74799;SDS011;63326;45.088;7.658;2023-07-02T11:37:46;4.43;;;2.95;;
74799;SDS011;63326;45.088;7.658;2023-07-02T11:40:16;5.07;;;3.05;;
74799;SDS011;63326;45.088;7.658;2023-07-02T11:42:43;5.25;;;3.17;;
74799;SDS011;63326;45.088;7.658;2023-07-02T11:45:10;4.25;;;3.13;;
74799;SDS011;63326;45.088;7.658;2023-07-02T11:47:38;4.90;;;2.83;;
74799;SDS011;63326;45.088;7.658;2023-07-02T11:50:05;4.95;;;3.05;;
74799;SDS011;63326;45.088;7.658;2023-07-02T11:52:50;4.55;;;3.00;;
74799;SDS011;63326;45.088;7.658;2023-07-02T11:55:16;4.88;;;3.05;;
74799;SDS011;63326;45.088;7.658;2023-07-02T11:57:43;4.75;;;3.10;;
74799;SDS011;63326;45.088;7.658;2023-07-02T12:00:10;7.80;;;3.17;;
74799;SDS011;63326;45.088;7.658;2023-07-02T12:02:36;5.90;;;3.05;;
74799;SDS011;63326;45.088;7.658;2023-07-02T12:05:03;5.85;;;3.10;;
74799;SDS011;63326;45.088;7.658;2023-07-02T12:07:33;4.82;;;3.03;;
74799;SDS011;63326;45.088;7.658;2023-07-02T12:10:00;5.15;;;3.05;;
74799;SDS011;63326;45.088;7.658;2023-07-02T12:12:27;5.38;;;3.33;;
74799;SDS011;63326;45.088;7.658;2023-07-02T12:14:53;6.35;;;2.90;;
74799;SDS011;63326;45.088;7.658;2023-07-02T12:17:20;4.45;;;2.92;;
74799;SDS011;63326;45.088;7.658;2023-07-02T12:19:47;4.15;;;2.78;;
74799;SDS011;63326;45.088;7.658;2023-07-02T12:22:14;4.43;;;2.90;;
74799;SDS011;63326;45.088;7.658;2023-07-02T12:24:44;6.60;;;3.22;;
74799;SDS011;63326;45.088;7.658;2023-07-02T12:27:10;6.22;;;3.08;;
74799;SDS011;63326;45.088;7.658;2023-07-02T12:29:37;6.18;;;3.40;;
74799;SDS011;63326;45.088;7.658;2023-07-02T12:32:04;5.80;;;3.60;;
74799;SDS011;63326;45.088;7.658;2023-07-02T12:34:31;5.68;;;3.38;;
74799;SDS011;63326;45.088;7.658;2023-07-02T12:36:57;5.57;;;3.08;;
74799;SDS011;63326;45.088;7.658;2023-07-02T12:39:24;4.65;;;3.10;;
74799;SDS011;63326;45.088;7.658;2023-07-02T12:41:51;5.10;;;2.65;;
74799;SDS011;63326;45.088;7.658;2023-07-02T12:44:18;6.10;;;3.90;;
74799;SDS011;63326;45.088;7.658;2023-07-02T12:46:44;5.60;;;3.67;;
74799;SDS011;63326;45.088;7.658;2023-07-02T12:49:11;5.72;;;3.47;;
74799;SDS011;63326;45.088;7.658;2023-07-02T12:51:38;5.10;;;3.47;;
74799;SDS011;63326;45.088;7.658;2023-07-02T12:54:04;5.32;;;3.28;;
74799;SDS011;63326;45.088;7.658;2023-07-02T12:56:31;4.78;;;3.00;;
74799;SDS011;63326;45.088;7.658;2023-07-02T12:58:58;5.63;;;2.95;;
74799;SDS011;63326;45.088;7.658;2023-07-02T13:01:24;6.18;;;3.50;;
74799;SDS011;63326;45.088;7.658;2023-07-02T13:03:51;6.43;;;3.15;;
74799;SDS011;63326;45.088;7.658;2023-07-02T13:06:18;5.78;;;3.55;;
74799;SDS011;63326;45.088;7.658;2023-07-02T13:08:44;5.40;;;3.50;;
74799;SDS011;63326;45.088;7.658;2023-07-02T13:11:11;5.82;;;3.47;;
74799;SDS011;63326;45.088;7.658;2023-07-02T13:13:37;5.65;;;3.60;;
74799;SDS011;63326;45.088;7.658;2023-07-02T13:16:04;6.50;;;3.83;;
74799;SDS011;63326;45.088;7.658;2023-07-02T13:18:30;9.85;;;4.13;;
74799;SDS011;63326;45.088;7.658;2023-07-02T13:20:57;5.65;;;3.70;;
74799;SDS011;63326;45.088;7.658;2023-07-02T13:23:24;5.32;;;3.47;;
74799;SDS011;63326;45.088;7.658;2023-07-02T13:25:50;4.63;;;3.30;;
74799;SDS011;63326;45.088;7.658;2023-07-02T13:28:17;6.18;;;3.15;;
74799;SDS011;63326;45.088;7.658;2023-07-02T13:30:44;4.68;;;3.17;;
74799;SDS011;63326;45.088;7.658;2023-07-02T13:33:10;6.15;;;3.67;;
74799;SDS011;63326;45.088;7.658;2023-07-02T13:35:37;5.60;;;3.53;;
74799;SDS011;63326;45.088;7.658;2023-07-02T13:40:31;7.00;;;3.47;;
74799;SDS011;63326;45.088;7.658;2023-07-02T13:42:58;5.93;;;3.58;;
74799;SDS011;63326;45.088;7.658;2023-07-02T13:45:25;5.68;;;3.05;;
74799;SDS011;63326;45.088;7.658;2023-07-02T13:47:51;4.68;;;3.15;;
74799;SDS011;63326;45.088;7.658;2023-07-02T13:50:18;5.10;;;3.50;;
74799;SDS011;63326;45.088;7.658;2023-07-02T13:52:45;5.68;;;3.00;;
74799;SDS011;63326;45.088;7.658;2023-07-02T13:55:13;4.60;;;2.78;;
74799;SDS011;63326;45.088;7.658;2023-07-02T13:57:39;4.93;;;2.97;;
74799;SDS011;63326;45.088;7.658;2023-07-02T14:00:06;5.65;;;3.20;;
74799;SDS011;63326;45.088;7.658;2023-07-02T14:02:34;3.83;;;2.38;;
74799;SDS011;63326;45.088;7.658;2023-07-02T14:05:00;4.40;;;3.20;;
74799;SDS011;63326;45.088;7.658;2023-07-02T14:07:27;4.93;;;3.05;;
74799;SDS011;63326;45.088;7.658;2023-07-02T14:09:54;5.30;;;3.15;;
74799;SDS011;63326;45.088;7.658;2023-07-02T14:12:21;4.43;;;2.53;;
74799;SDS011;63326;45.088;7.658;2023-07-02T14:14:48;5.68;;;2.70;;
74799;SDS011;63326;45.088;7.658;2023-07-02T14:17:15;5.72;;;3.22;;
74799;SDS011;63326;45.088;7.658;2023-07-02T14:19:42;4.88;;;2.92;;
74799;SDS011;63326;45.088;7.658;2023-07-02T14:22:09;5.00;;;3.40;;
74799;SDS011;63326;45.088;7.658;2023-07-02T14:24:35;4.65;;;2.90;;
74799;SDS011;63326;45.088;7.658;2023-07-02T14:27:02;4.97;;;2.90;;
74799;SDS011;63326;45.088;7.658;2023-07-02T14:29:29;5.78;;;3.03;;
74799;SDS011;63326;45.088;7.658;2023-07-02T14:31:58;4.55;;;3.47;;
74799;SDS011;63326;45.088;7.658;2023-07-02T14:34:25;3.88;;;2.35;;
74799;SDS011;63326;45.088;7.658;2023-07-02T14:36:52;4.95;;;2.55;;
74799;SDS011;63326;45.088;7.658;2023-07-02T14:39:18;5.28;;;2.75;;
74799;SDS011;63326;45.088;7.658;2023-07-02T14:41:45;4.10;;;2.40;;
74799;SDS011;63326;45.088;7.658;2023-07-02T14:44:11;3.55;;;1.92;;
74799;SDS011;63326;45.088;7.658;2023-07-02T14:46:39;5.07;;;2.90;;
74799;SDS011;63326;45.088;7.658;2023-07-02T14:49:06;5.43;;;2.50;;
74799;SDS011;63326;45.088;7.658;2023-07-02T14:51:32;4.82;;;2.88;;
74799;SDS011;63326;45.088;7.658;2023-07-02T14:53:59;3.95;;;2.50;;
74799;SDS011;63326;45.088;7.658;2023-07-02T14:56:27;4.82;;;2.72;;
74799;SDS011;63326;45.088;7.658;2023-07-02T14:58:54;3.90;;;2.83;;
74799;SDS011;63326;45.088;7.658;2023-07-02T15:01:21;4.05;;;2.97;;
74799;SDS011;63326;45.088;7.658;2023-07-02T15:03:47;4.60;;;2.67;;
74799;SDS011;63326;45.088;7.658;2023-07-02T15:06:15;4.80;;;2.47;;
74799;SDS011;63326;45.088;7.658;2023-07-02T15:08:42;5.03;;;2.92;;
74799;SDS011;63326;45.088;7.658;2023-07-02T15:11:10;3.42;;;2.22;;